createdAt,value
2023-05-07T00:00:09.109Z,99012.00
2023-05-07T00:02:36.663Z,98998.00
2023-05-07T00:05:04.622Z,98992.00
2023-05-07T00:07:31.639Z,98998.00
2023-05-07T00:09:58.584Z,98991.00
2023-05-07T00:12:25.475Z,99002.00
2023-05-07T00:14:52.320Z,98998.00
2023-05-07T00:17:19.452Z,99005.00
2023-05-07T00:19:46.805Z,99007.00
2023-05-07T00:22:13.714Z,98994.00
2023-05-07T00:24:40.610Z,98997.00
2023-05-07T00:27:07.531Z,99007.00
2023-05-07T00:29:34.399Z,99007.00
2023-05-07T00:32:01.476Z,99004.00
2023-05-07T00:34:28.387Z,99013.00
2023-05-07T00:36:55.277Z,99014.00
2023-05-07T00:39:22.172Z,98996.00
2023-05-07T00:41:49.066Z,99006.00
2023-05-07T00:44:15.950Z,98997.00
2023-05-07T00:46:42.858Z,98998.00
2023-05-07T00:49:09.727Z,98998.00
2023-05-07T00:51:36.651Z,98998.00
2023-05-07T00:54:03.987Z,99006.00
2023-05-07T00:56:30.851Z,98999.00
2023-05-07T00:58:57.793Z,98996.00
2023-05-07T01:01:24.696Z,98992.00
2023-05-07T01:03:51.646Z,98988.00
2023-05-07T01:06:18.728Z,98999.00
2023-05-07T01:08:46.177Z,98996.00
2023-05-07T01:11:13.121Z,98996.00
2023-05-07T01:13:40.042Z,98986.00
2023-05-07T01:16:07.493Z,98985.00
2023-05-07T01:18:34.414Z,98995.00
2023-05-07T01:21:01.347Z,99003.00
2023-05-07T01:23:28.691Z,98980.00
2023-05-07T01:25:55.753Z,98981.00
2023-05-07T01:28:22.625Z,98984.00
2023-05-07T01:30:55.877Z,98975.00
2023-05-07T01:33:22.992Z,98982.00
2023-05-07T01:35:53.811Z,98984.00
2023-05-07T01:38:22.570Z,98990.00
2023-05-07T01:40:49.496Z,98991.00
2023-05-07T01:43:16.444Z,98988.00
2023-05-07T01:45:43.359Z,98999.00
2023-05-07T01:48:11.212Z,98988.00
2023-05-07T01:50:38.161Z,99008.00
2023-05-07T01:53:05.092Z,99007.00
2023-05-07T01:55:31.998Z,99017.00
2023-05-07T01:57:58.905Z,99021.00
2023-05-07T02:00:26.115Z,99021.00
2023-05-07T02:02:53.091Z,99026.00
2023-05-07T02:05:20.324Z,99023.00
2023-05-07T02:07:47.326Z,99033.00
2023-05-07T02:10:14.258Z,99051.00
2023-05-07T02:12:41.226Z,99041.00
2023-05-07T02:15:08.729Z,99049.00
2023-05-07T02:17:35.777Z,99039.00
2023-05-07T02:20:02.737Z,99054.00
2023-05-07T02:22:29.615Z,99055.00
2023-05-07T02:24:56.504Z,99060.00
2023-05-07T02:27:23.396Z,99057.00
2023-05-07T02:29:50.296Z,99082.00
2023-05-07T02:32:17.241Z,99073.00
2023-05-07T02:34:44.187Z,99082.00
2023-05-07T02:37:12.081Z,99086.00
2023-05-07T02:39:39.155Z,99071.00
2023-05-07T02:42:06.087Z,99077.00
2023-05-07T02:44:33.016Z,99066.00
2023-05-07T02:46:59.899Z,99066.00
2023-05-07T02:49:26.876Z,99071.00
2023-05-07T02:51:53.783Z,99060.00
2023-05-07T02:54:20.677Z,99067.00
2023-05-07T02:56:47.550Z,99073.00
2023-05-07T02:59:14.388Z,99076.00
2023-05-07T03:01:41.284Z,99082.00
2023-05-07T03:04:08.268Z,99075.00
2023-05-07T03:06:35.190Z,99069.00
2023-05-07T03:09:02.043Z,99077.00
2023-05-07T03:11:28.888Z,99086.00
2023-05-07T03:13:55.818Z,99084.00
2023-05-07T03:16:22.753Z,99089.00
2023-05-07T03:18:49.782Z,99079.00
2023-05-07T03:21:16.761Z,99079.00
2023-05-07T03:23:43.670Z,99074.00
2023-05-07T03:26:10.578Z,99075.00
2023-05-07T03:28:38.239Z,99078.00
2023-05-07T03:31:05.227Z,99082.00
2023-05-07T03:33:34.763Z,99088.00
2023-05-07T03:36:02.193Z,99082.00
2023-05-07T03:38:29.092Z,99093.00
2023-05-07T03:40:55.959Z,99101.00
2023-05-07T03:43:22.815Z,99099.00
2023-05-07T03:45:49.642Z,99099.00
2023-05-07T03:48:16.498Z,99091.00
2023-05-07T03:50:43.432Z,99105.00
2023-05-07T03:53:10.354Z,99110.00
2023-05-07T03:55:37.245Z,99100.00
2023-05-07T03:58:04.197Z,99086.00
2023-05-07T04:00:31.088Z,99111.00
2023-05-07T04:02:58.034Z,99111.00
2023-05-07T04:05:25.385Z,99096.00
2023-05-07T04:07:52.317Z,99103.00
2023-05-07T04:10:19.224Z,99108.00
2023-05-07T04:12:46.167Z,99109.00
2023-05-07T04:15:13.192Z,99106.00
2023-05-07T04:17:40.141Z,99123.00
2023-05-07T04:20:09.935Z,99124.00
2023-05-07T04:22:37.474Z,99136.00
2023-05-07T04:25:04.973Z,99128.00
2023-05-07T04:27:31.946Z,99123.00
2023-05-07T04:29:58.976Z,99138.00
2023-05-07T04:32:25.915Z,99142.00
2023-05-07T04:34:53.020Z,99138.00
2023-05-07T04:37:19.960Z,99135.00
2023-05-07T04:39:46.858Z,99140.00
2023-05-07T04:42:19.158Z,99142.00
2023-05-07T04:44:46.241Z,99149.00
2023-05-07T04:47:13.420Z,99139.00
2023-05-07T04:49:40.343Z,99145.00
2023-05-07T04:52:07.262Z,99134.00
2023-05-07T04:54:34.202Z,99143.00
2023-05-07T04:57:01.064Z,99135.00
2023-05-07T04:59:27.979Z,99139.00
2023-05-07T05:01:54.963Z,99148.00
2023-05-07T05:04:22.087Z,99144.00
2023-05-07T05:06:49.004Z,99153.00
2023-05-07T05:09:15.873Z,99151.00
2023-05-07T05:11:42.977Z,99168.00
2023-05-07T05:14:09.908Z,99152.00
2023-05-07T05:16:36.959Z,99162.00
2023-05-07T05:19:04.059Z,99161.00
2023-05-07T05:21:32.674Z,99161.00
2023-05-07T05:23:59.777Z,99164.00
2023-05-07T05:26:26.890Z,99168.00
2023-05-07T05:28:53.755Z,99171.00
2023-05-07T05:31:20.676Z,99171.00
2023-05-07T05:33:47.586Z,99169.00
2023-05-07T05:36:14.523Z,99167.00
2023-05-07T05:38:41.610Z,99167.00
2023-05-07T05:41:08.529Z,99160.00
2023-05-07T05:43:35.396Z,99179.00
2023-05-07T05:46:02.332Z,99179.00
2023-05-07T05:48:30.605Z,99178.00
2023-05-07T05:50:57.501Z,99176.00
2023-05-07T05:53:24.394Z,99153.00
2023-05-07T05:55:51.281Z,99163.00
2023-05-07T05:58:18.172Z,99176.00
2023-05-07T06:00:46.902Z,99183.00
2023-05-07T06:03:14.508Z,99173.00
2023-05-07T06:05:41.490Z,99173.00
2023-05-07T06:08:08.412Z,99173.00
2023-05-07T06:10:37.343Z,99174.00
2023-05-07T06:13:04.252Z,99179.00
2023-05-07T06:15:31.146Z,99168.00
2023-05-07T06:17:58.328Z,99162.00
2023-05-07T06:20:25.437Z,99171.00
2023-05-07T06:22:52.490Z,99175.00
2023-05-07T06:25:19.544Z,99172.00
2023-05-07T06:27:46.579Z,99182.00
2023-05-07T06:30:13.755Z,99186.00
2023-05-07T06:32:42.150Z,99169.00
2023-05-07T06:35:09.710Z,99160.00
2023-05-07T06:37:36.705Z,99183.00
2023-05-07T06:40:04.274Z,99154.00
2023-05-07T06:42:31.314Z,99179.00
2023-05-07T06:44:58.315Z,99164.00
2023-05-07T06:47:25.432Z,99167.00
2023-05-07T06:49:52.535Z,99189.00
2023-05-07T06:52:19.574Z,99179.00
2023-05-07T06:54:46.610Z,99169.00
2023-05-07T06:57:13.582Z,99176.00
2023-05-07T06:59:40.531Z,99182.00
2023-05-07T07:02:07.708Z,99181.00
2023-05-07T07:04:34.729Z,99166.00
2023-05-07T07:07:01.756Z,99185.00
2023-05-07T07:09:28.727Z,99187.00
2023-05-07T07:11:55.659Z,99174.00
2023-05-07T07:14:22.659Z,99186.00
2023-05-07T07:16:49.686Z,99183.00
2023-05-07T07:19:16.741Z,99186.00
2023-05-07T07:21:43.859Z,99190.00
2023-05-07T07:24:10.835Z,99188.00
2023-05-07T07:26:37.832Z,99194.00
2023-05-07T07:29:04.783Z,99192.00
2023-05-07T07:31:31.884Z,99202.00
2023-05-07T07:33:59.022Z,99190.00
2023-05-07T07:36:32.071Z,99191.00
2023-05-07T07:39:05.848Z,99178.00
2023-05-07T07:41:33.228Z,99180.00
2023-05-07T07:44:00.128Z,99193.00
2023-05-07T07:46:27.042Z,99181.00
2023-05-07T07:48:54.057Z,99181.00
2023-05-07T07:51:21.019Z,99193.00
2023-05-07T07:53:47.961Z,99178.00
2023-05-07T07:56:14.837Z,99147.00
2023-05-07T07:58:41.720Z,99156.00
2023-05-07T08:01:08.798Z,99149.00
2023-05-07T08:03:35.893Z,99156.00
2023-05-07T08:06:02.869Z,99151.00
2023-05-07T08:08:29.948Z,99139.00
2023-05-07T08:10:56.868Z,99145.00
2023-05-07T08:13:23.997Z,99127.00
2023-05-07T08:15:51.006Z,99137.00
2023-05-07T08:18:17.949Z,99137.00
2023-05-07T08:20:44.934Z,99152.00
2023-05-07T08:23:12.015Z,99149.00
2023-05-07T08:25:38.970Z,99150.00
2023-05-07T08:28:06.679Z,99153.00
2023-05-07T08:30:35.354Z,99135.00
2023-05-07T08:33:02.401Z,99152.00
2023-05-07T08:35:29.494Z,99150.00
2023-05-07T08:37:56.466Z,99143.00
2023-05-07T08:40:26.498Z,99153.00
2023-05-07T08:42:54.311Z,99152.00
2023-05-07T08:45:22.412Z,99146.00
2023-05-07T08:47:53.198Z,99145.00
2023-05-07T08:50:21.251Z,99157.00
2023-05-07T08:52:48.685Z,99150.00
2023-05-07T08:55:15.619Z,99147.00
2023-05-07T08:57:42.767Z,99154.00
2023-05-07T09:00:10.531Z,99150.00
2023-05-07T09:02:37.770Z,99147.00
2023-05-07T09:05:05.246Z,99142.00
2023-05-07T09:07:32.244Z,99140.00
2023-05-07T09:09:59.257Z,99138.00
2023-05-07T09:12:26.175Z,99147.00
2023-05-07T09:14:53.240Z,99146.00
2023-05-07T09:17:20.196Z,99138.00
2023-05-07T09:19:47.341Z,99133.00
2023-05-07T09:22:14.637Z,99129.00
2023-05-07T09:24:41.722Z,99124.00
2023-05-07T09:27:08.972Z,99125.00
2023-05-07T09:29:35.997Z,99137.00
2023-05-07T09:32:07.231Z,99134.00
2023-05-07T09:34:34.523Z,99114.00
2023-05-07T09:37:05.661Z,99137.00
2023-05-07T09:39:50.134Z,99152.00
2023-05-07T09:42:17.114Z,99148.00
2023-05-07T09:44:47.180Z,99136.00
2023-05-07T09:47:14.116Z,99141.00
2023-05-07T09:49:41.066Z,99131.00
2023-05-07T09:52:08.148Z,99131.00
2023-05-07T09:54:35.915Z,99126.00
2023-05-07T09:57:03.444Z,99127.00
2023-05-07T09:59:32.330Z,99126.00
2023-05-07T10:02:01.501Z,99123.00
2023-05-07T10:04:29.759Z,99130.00
2023-05-07T10:06:56.712Z,99122.00
2023-05-07T10:09:23.854Z,99115.00
2023-05-07T10:11:50.876Z,99123.00
2023-05-07T10:14:17.891Z,99120.00
2023-05-07T10:16:44.937Z,99129.00
2023-05-07T10:19:11.921Z,99129.00
2023-05-07T10:21:39.058Z,99121.00
2023-05-07T10:24:07.582Z,99112.00
2023-05-07T10:26:34.691Z,99114.00
2023-05-07T10:29:13.971Z,99116.00
2023-05-07T10:32:18.202Z,99108.00
2023-05-07T10:34:46.599Z,99096.00
2023-05-07T10:37:13.499Z,99086.00
2023-05-07T10:39:40.404Z,99081.00
2023-05-07T10:42:14.756Z,99090.00
2023-05-07T10:44:41.712Z,99073.00
2023-05-07T10:47:13.839Z,99081.00
2023-05-07T10:49:46.954Z,99086.00
2023-05-07T10:52:18.572Z,99078.00
2023-05-07T10:54:45.902Z,99082.00
2023-05-07T10:57:35.564Z,99073.00
2023-05-07T11:00:04.149Z,99068.00
2023-05-07T11:03:02.209Z,99062.00
2023-05-07T11:05:35.755Z,99067.00
2023-05-07T11:08:05.511Z,99066.00
2023-05-07T11:10:54.898Z,99069.00
2023-05-07T11:13:48.058Z,99065.00
2023-05-07T11:16:21.253Z,99068.00
2023-05-07T11:18:54.226Z,99051.00
2023-05-07T11:21:37.081Z,99029.00
2023-05-07T11:24:05.354Z,99056.00
2023-05-07T11:26:46.227Z,99062.00
2023-05-07T11:29:23.322Z,99071.00
2023-05-07T11:31:59.507Z,99059.00
2023-05-07T11:34:27.423Z,99061.00
2023-05-07T11:36:54.512Z,99060.00
2023-05-07T11:39:32.140Z,99061.00
2023-05-07T11:41:59.538Z,99053.00
2023-05-07T11:44:26.446Z,99042.00
2023-05-07T11:46:53.380Z,99036.00
2023-05-07T11:49:20.423Z,99041.00
2023-05-07T11:51:47.306Z,99033.00
2023-05-07T11:54:17.056Z,99040.00
2023-05-07T11:56:45.319Z,99049.00
2023-05-07T11:59:13.379Z,99052.00
2023-05-07T12:01:47.144Z,99036.00
2023-05-07T12:04:14.141Z,99042.00
2023-05-07T12:06:41.139Z,99051.00
2023-05-07T12:09:08.035Z,99052.00
2023-05-07T12:11:35.006Z,99049.00
2023-05-07T12:14:01.895Z,99056.00
2023-05-07T12:16:28.907Z,99057.00
2023-05-07T12:18:55.985Z,99041.00
2023-05-07T12:21:23.371Z,99033.00
2023-05-07T12:23:50.239Z,99060.00
2023-05-07T12:26:17.116Z,99057.00
2023-05-07T12:28:43.988Z,99047.00
2023-05-07T12:31:10.887Z,99055.00
2023-05-07T12:33:37.805Z,99052.00
2023-05-07T12:36:07.163Z,99044.00
2023-05-07T12:38:41.062Z,99040.00
2023-05-07T12:41:10.198Z,99035.00
2023-05-07T12:43:37.169Z,99044.00
2023-05-07T12:46:08.471Z,99040.00
2023-05-07T12:48:39.019Z,99023.00
2023-05-07T12:51:06.738Z,99021.00
2023-05-07T12:53:33.632Z,99023.00
2023-05-07T12:56:00.826Z,99019.00
2023-05-07T12:58:29.889Z,99017.00
2023-05-07T13:00:58.619Z,99017.00
2023-05-07T13:03:31.488Z,99026.00
2023-05-07T13:06:03.447Z,99013.00
2023-05-07T13:08:34.569Z,99011.00
2023-05-07T13:11:03.088Z,99012.00
2023-05-07T13:13:33.385Z,99015.00
2023-05-07T13:16:01.217Z,99010.00
2023-05-07T13:18:28.402Z,99011.00
2023-05-07T13:20:55.382Z,99017.00
2023-05-07T13:23:22.321Z,99019.00
2023-05-07T13:25:49.757Z,99014.00
2023-05-07T13:28:16.801Z,99004.00
2023-05-07T13:30:43.746Z,99008.00
2023-05-07T13:33:10.666Z,99000.00
2023-05-07T13:35:37.560Z,98997.00
2023-05-07T13:38:04.849Z,98997.00
2023-05-07T13:40:31.850Z,98985.00
2023-05-07T13:42:59.642Z,98988.00
2023-05-07T13:45:26.661Z,98990.00
2023-05-07T13:47:53.762Z,98977.00
2023-05-07T13:50:20.685Z,98969.00
2023-05-07T13:52:47.570Z,98975.00
2023-05-07T13:55:14.507Z,98964.00
2023-05-07T13:57:41.438Z,98962.00
2023-05-07T14:00:09.381Z,98969.00
2023-05-07T14:02:36.550Z,98970.00
2023-05-07T14:05:03.813Z,98962.00
2023-05-07T14:07:30.694Z,98966.00
2023-05-07T14:09:57.871Z,98969.00
2023-05-07T14:12:25.082Z,98964.00
2023-05-07T14:14:51.955Z,98968.00
2023-05-07T14:17:19.242Z,98962.00
2023-05-07T14:19:46.145Z,98971.00
2023-05-07T14:22:14.871Z,98974.00
2023-05-07T14:24:41.752Z,98980.00
2023-05-07T14:27:11.856Z,98968.00
2023-05-07T14:29:38.847Z,98969.00
2023-05-07T14:32:05.932Z,98974.00
2023-05-07T14:34:32.945Z,98975.00
2023-05-07T14:37:00.885Z,98978.00
2023-05-07T14:39:27.826Z,98968.00
2023-05-07T14:41:54.745Z,98974.00
2023-05-07T14:44:22.114Z,98967.00
2023-05-07T14:46:48.978Z,98960.00
2023-05-07T14:49:16.005Z,98967.00
2023-05-07T14:51:42.935Z,98969.00
2023-05-07T14:54:09.866Z,98963.00
2023-05-07T14:56:36.821Z,98967.00
2023-05-07T14:59:04.219Z,98969.00
2023-05-07T15:01:31.152Z,98964.00
2023-05-07T15:03:58.186Z,98979.00
2023-05-07T15:06:25.149Z,98976.00
2023-05-07T15:08:52.004Z,98970.00
2023-05-07T15:11:18.883Z,98968.00
2023-05-07T15:13:45.790Z,98971.00
2023-05-07T15:16:12.728Z,98968.00
2023-05-07T15:18:39.620Z,98978.00
2023-05-07T15:21:06.544Z,98978.00
2023-05-07T15:23:33.460Z,98972.00
2023-05-07T15:26:00.341Z,98982.00
2023-05-07T15:28:27.201Z,98981.00
2023-05-07T15:30:56.167Z,98975.00
2023-05-07T15:33:23.280Z,98983.00
2023-05-07T15:35:50.181Z,98986.00
2023-05-07T15:38:17.063Z,98993.00
2023-05-07T15:40:43.997Z,98984.00
2023-05-07T15:43:11.892Z,98995.00
2023-05-07T15:45:43.057Z,98994.00
2023-05-07T15:48:10.830Z,98986.00
2023-05-07T15:50:38.037Z,98984.00
2023-05-07T15:53:05.152Z,98991.00
2023-05-07T15:55:32.438Z,98995.00
2023-05-07T15:58:01.826Z,98994.00
2023-05-07T16:00:31.844Z,98995.00
2023-05-07T16:03:15.843Z,99004.00
2023-05-07T16:05:45.881Z,98986.00
2023-05-07T16:08:15.951Z,99000.00
2023-05-07T16:10:53.546Z,99000.00
2023-05-07T16:13:20.541Z,98998.00
2023-05-07T16:15:47.658Z,99002.00
2023-05-07T16:18:14.623Z,99008.00
2023-05-07T16:20:42.134Z,98994.00
2023-05-07T16:23:09.812Z,99005.00
2023-05-07T16:25:36.768Z,99001.00
2023-05-07T16:28:03.767Z,99000.00
2023-05-07T16:30:30.795Z,99006.00
2023-05-07T16:32:57.809Z,98994.00
2023-05-07T16:35:24.805Z,99004.00
2023-05-07T16:37:51.843Z,99001.00
2023-05-07T16:40:18.792Z,98994.00
2023-05-07T16:42:45.736Z,99007.00
2023-05-07T16:45:12.866Z,99005.00
2023-05-07T16:47:40.105Z,99007.00
2023-05-07T16:50:07.678Z,99006.00
2023-05-07T16:52:34.952Z,99010.00
2023-05-07T16:55:01.921Z,98997.00
2023-05-07T16:57:30.192Z,99007.00
2023-05-07T16:59:57.376Z,99022.00
2023-05-07T17:02:24.507Z,99021.00
2023-05-07T17:04:51.549Z,99026.00
2023-05-07T17:07:18.576Z,99024.00
2023-05-07T17:09:45.454Z,99022.00
2023-05-07T17:12:12.383Z,99021.00
2023-05-07T17:14:39.470Z,99024.00
2023-05-07T17:17:06.426Z,99029.00
2023-05-07T17:19:33.292Z,99019.00
2023-05-07T17:22:08.675Z,99026.00
2023-05-07T17:24:35.654Z,99028.00
2023-05-07T17:27:02.633Z,99028.00
2023-05-07T17:29:30.444Z,99028.00
2023-05-07T17:32:07.055Z,99024.00
2023-05-07T17:34:35.371Z,99017.00
2023-05-07T17:37:02.665Z,99021.00
2023-05-07T17:39:29.530Z,99014.00
2023-05-07T17:41:56.480Z,99018.00
2023-05-07T17:44:23.411Z,99012.00
2023-05-07T17:46:50.351Z,99016.00
2023-05-07T17:49:17.364Z,99015.00
2023-05-07T17:51:53.834Z,99014.00
2023-05-07T17:54:22.050Z,99022.00
2023-05-07T17:56:48.962Z,99030.00
2023-05-07T17:59:15.938Z,99041.00
2023-05-07T18:01:52.811Z,99039.00
2023-05-07T18:04:19.670Z,99035.00
2023-05-07T18:06:46.561Z,99030.00
2023-05-07T18:09:13.463Z,99037.00
2023-05-07T18:11:40.322Z,99037.00
2023-05-07T18:14:07.209Z,99041.00
2023-05-07T18:16:36.584Z,99028.00
2023-05-07T18:19:03.512Z,99038.00
2023-05-07T18:21:30.453Z,99039.00
2023-05-07T18:23:57.376Z,99031.00
2023-05-07T18:26:24.340Z,99022.00
2023-05-07T18:28:51.344Z,99015.00
2023-05-07T18:31:19.868Z,99019.00
2023-05-07T18:33:46.862Z,99025.00
2023-05-07T18:36:13.813Z,99022.00
2023-05-07T18:38:40.888Z,99025.00
2023-05-07T18:41:07.837Z,99012.00
2023-05-07T18:43:34.849Z,99022.00
2023-05-07T18:46:01.860Z,99012.00
2023-05-07T18:48:28.970Z,98999.00
2023-05-07T18:50:57.999Z,99010.00
2023-05-07T18:53:25.045Z,98999.00
2023-05-07T18:55:52.733Z,99012.00
2023-05-07T18:58:19.727Z,98989.00
2023-05-07T19:00:47.951Z,99002.00
2023-05-07T19:03:15.667Z,98987.00
2023-05-07T19:05:45.889Z,99015.00
2023-05-07T19:08:12.983Z,99012.00
2023-05-07T19:10:39.931Z,99013.00
2023-05-07T19:13:06.923Z,99009.00
2023-05-07T19:15:34.021Z,99019.00
2023-05-07T19:18:01.260Z,99016.00
2023-05-07T19:20:29.059Z,99025.00
2023-05-07T19:22:56.310Z,99029.00
2023-05-07T19:25:23.239Z,99025.00
2023-05-07T19:27:50.177Z,99039.00
2023-05-07T19:30:17.333Z,99033.00
2023-05-07T19:32:44.255Z,99033.00
2023-05-07T19:35:11.383Z,99027.00
2023-05-07T19:37:38.968Z,99029.00
2023-05-07T19:40:07.056Z,99035.00
2023-05-07T19:42:33.929Z,99021.00
2023-05-07T19:45:00.895Z,99024.00
2023-05-07T19:47:27.973Z,99029.00
2023-05-07T19:49:54.908Z,99042.00
2023-05-07T19:52:21.890Z,99021.00
2023-05-07T19:54:48.784Z,99019.00
2023-05-07T19:57:16.050Z,99024.00
2023-05-07T19:59:43.173Z,99034.00
2023-05-07T20:02:10.092Z,99037.00
2023-05-07T20:04:37.036Z,99034.00
2023-05-07T20:07:05.108Z,99032.00
2023-05-07T20:09:31.998Z,99036.00
2023-05-07T20:11:59.026Z,99050.00
2023-05-07T20:14:27.157Z,99066.00
2023-05-07T20:16:54.200Z,99067.00
2023-05-07T20:19:21.134Z,99064.00
2023-05-07T20:21:48.872Z,99073.00
2023-05-07T20:24:15.715Z,99088.00
2023-05-07T20:26:51.298Z,99088.00
2023-05-07T20:29:19.353Z,99091.00
2023-05-07T20:31:46.301Z,99091.00
2023-05-07T20:34:13.285Z,99090.00
2023-05-07T20:36:41.281Z,99093.00
2023-05-07T20:39:08.205Z,99088.00
2023-05-07T20:41:36.061Z,99086.00
2023-05-07T20:44:02.936Z,99079.00
2023-05-07T20:46:30.194Z,99081.00
2023-05-07T20:48:57.969Z,99096.00
2023-05-07T20:51:25.770Z,99100.00
2023-05-07T20:53:56.795Z,99107.00
2023-05-07T20:56:24.882Z,99098.00
2023-05-07T20:58:51.840Z,99091.00
2023-05-07T21:01:18.782Z,99109.00
2023-05-07T21:03:45.983Z,99096.00
2023-05-07T21:06:12.977Z,99099.00
2023-05-07T21:08:39.882Z,99094.00
2023-05-07T21:11:06.835Z,99080.00
2023-05-07T21:13:33.816Z,99091.00
2023-05-07T21:16:00.847Z,99090.00
2023-05-07T21:18:27.832Z,99100.00
2023-05-07T21:20:54.710Z,99076.00
2023-05-07T21:23:21.630Z,99077.00
2023-05-07T21:25:48.719Z,99082.00
2023-05-07T21:28:15.641Z,99094.00
2023-05-07T21:30:42.500Z,99097.00
2023-05-07T21:33:09.395Z,99088.00
2023-05-07T21:35:36.692Z,99098.00
2023-05-07T21:38:03.757Z,99109.00
2023-05-07T21:40:30.698Z,99106.00
2023-05-07T21:42:58.980Z,99106.00
2023-05-07T21:45:25.874Z,99094.00
2023-05-07T21:47:52.912Z,99106.00
2023-05-07T21:50:20.057Z,99097.00
2023-05-07T21:52:47.045Z,99097.00
2023-05-07T21:55:14.113Z,99104.00
2023-05-07T21:57:43.489Z,99100.00
2023-05-07T22:00:14.455Z,99106.00
2023-05-07T22:02:41.832Z,99105.00
2023-05-07T22:05:09.576Z,99119.00
2023-05-07T22:07:36.509Z,99114.00
2023-05-07T22:10:03.578Z,99133.00
2023-05-07T22:12:30.501Z,99142.00
2023-05-07T22:14:57.377Z,99136.00
2023-05-07T22:17:24.461Z,99124.00
2023-05-07T22:19:51.754Z,99122.00
2023-05-07T22:22:18.799Z,99128.00
2023-05-07T22:24:46.096Z,99134.00
2023-05-07T22:27:13.022Z,99132.00
2023-05-07T22:29:40.023Z,99130.00
2023-05-07T22:32:07.022Z,99115.00
2023-05-07T22:34:33.953Z,99123.00
2023-05-07T22:37:00.909Z,99126.00
2023-05-07T22:39:29.121Z,99120.00
2023-05-07T22:41:56.026Z,99127.00
2023-05-07T22:44:22.930Z,99128.00
2023-05-07T22:46:49.866Z,99129.00
2023-05-07T22:49:16.777Z,99130.00
2023-05-07T22:51:43.677Z,99115.00
2023-05-07T22:54:10.544Z,99124.00
2023-05-07T22:56:37.391Z,99129.00
2023-05-07T22:59:04.296Z,99130.00
2023-05-07T23:01:32.843Z,99124.00
2023-05-07T23:03:59.788Z,99116.00
2023-05-07T23:06:27.810Z,99123.00
2023-05-07T23:08:57.850Z,99112.00
2023-05-07T23:11:28.210Z,99111.00
2023-05-07T23:13:55.196Z,99135.00
2023-05-07T23:16:30.205Z,99120.00
2023-05-07T23:18:57.207Z,99125.00
2023-05-07T23:21:24.237Z,99128.00
2023-05-07T23:23:51.132Z,99124.00
2023-05-07T23:26:18.003Z,99133.00
2023-05-07T23:28:45.224Z,99139.00
2023-05-07T23:31:12.431Z,99136.00
2023-05-07T23:33:39.385Z,99118.00
2023-05-07T23:36:07.238Z,99119.00
2023-05-07T23:38:34.426Z,99132.00
2023-05-07T23:41:01.288Z,99116.00
2023-05-07T23:43:28.165Z,99108.00
2023-05-07T23:45:55.160Z,99129.00
2023-05-07T23:48:22.071Z,99117.00
2023-05-07T23:50:48.977Z,99135.00
2023-05-07T23:53:15.903Z,99137.00
2023-05-07T23:55:42.758Z,99126.00
2023-05-07T23:58:09.671Z,99134.00
